sensor_id;sensor_type;location;lat;lon;timestamp;pressure;altitude;pressure_sealevel;temperature;humidity
9969;BME280;5025;48.890;9.278;2023-04-19T00:01:49;99357.03;;;10.93;70.30
9969;BME280;5025;48.890;9.278;2023-04-19T00:04:14;99358.94;;;10.93;70.18
9969;BME280;5025;48.890;9.278;2023-04-19T00:06:40;99358.09;;;10.92;70.46
9969;BME280;5025;48.890;9.278;2023-04-19T00:09:06;99358.09;;;10.92;70.48
9969;BME280;5025;48.890;9.278;2023-04-19T00:11:32;99355.19;;;10.94;70.37
9969;BME280;5025;48.890;9.278;2023-04-19T00:13:57;99358.09;;;10.92;70.23
9969;BME280;5025;48.890;9.278;2023-04-19T00:16:22;99356.44;;;10.91;70.44
9969;BME280;5025;48.890;9.278;2023-04-19T00:18:48;99356.44;;;10.91;70.37
9969;BME280;5025;48.890;9.278;2023-04-19T00:21:13;99352.06;;;10.90;70.53
9969;BME280;5025;48.890;9.278;2023-04-19T00:23:38;99350.44;;;10.89;70.44
9969;BME280;5025;48.890;9.278;2023-04-19T00:26:04;99347.09;;;10.87;70.47
9969;BME280;5025;48.890;9.278;2023-04-19T00:28:29;99344.41;;;10.87;70.45
9969;BME280;5025;48.890;9.278;2023-04-19T00:30:55;99354.16;;;10.88;70.56
9969;BME280;5025;48.890;9.278;2023-04-19T00:33:20;99351.91;;;10.85;70.62
9969;BME280;5025;48.890;9.278;2023-04-19T00:35:46;99351.09;;;10.85;70.53
9969;BME280;5025;48.890;9.278;2023-04-19T00:38:11;99349.81;;;10.87;70.48
9969;BME280;5025;48.890;9.278;2023-04-19T00:40:36;99343.78;;;10.85;70.58
9969;BME280;5025;48.890;9.278;2023-04-19T00:43:02;99340.28;;;10.85;70.53
9969;BME280;5025;48.890;9.278;2023-04-19T00:45:27;99343.19;;;10.83;70.67
9969;BME280;5025;48.890;9.278;2023-04-19T00:47:53;99339.03;;;10.81;70.69
9969;BME280;5025;48.890;9.278;2023-04-19T00:50:20;99339.25;;;10.79;70.82
9969;BME280;5025;48.890;9.278;2023-04-19T00:52:45;99338.22;;;10.80;70.75
9969;BME280;5025;48.890;9.278;2023-04-19T00:55:11;99343.63;;;10.80;70.72
9969;BME280;5025;48.890;9.278;2023-04-19T00:57:37;99338.66;;;10.77;71.05
9969;BME280;5025;48.890;9.278;2023-04-19T01:00:03;99334.88;;;10.78;71.17
9969;BME280;5025;48.890;9.278;2023-04-19T01:02:33;99333.25;;;10.77;70.98
9969;BME280;5025;48.890;9.278;2023-04-19T01:04:58;99334.06;;;10.77;71.16
9969;BME280;5025;48.890;9.278;2023-04-19T01:07:24;99329.91;;;10.75;70.89
9969;BME280;5025;48.890;9.278;2023-04-19T01:09:49;99329.91;;;10.75;71.03
9969;BME280;5025;48.890;9.278;2023-04-19T01:12:15;99325.38;;;10.75;71.14
9969;BME280;5025;48.890;9.278;2023-04-19T01:14:40;99324.50;;;10.75;71.03
9969;BME280;5025;48.890;9.278;2023-04-19T01:17:07;99324.50;;;10.75;71.32
9969;BME280;5025;48.890;9.278;2023-04-19T01:19:32;99329.91;;;10.75;71.38
9969;BME280;5025;48.890;9.278;2023-04-19T01:21:59;99326.63;;;10.73;71.38
9969;BME280;5025;48.890;9.278;2023-04-19T01:24:24;99318.72;;;10.71;71.52
9969;BME280;5025;48.890;9.278;2023-04-19T01:26:50;99318.72;;;10.71;71.47
9969;BME280;5025;48.890;9.278;2023-04-19T01:29:15;99315.22;;;10.71;71.28
9969;BME280;5025;48.890;9.278;2023-04-19T01:31:42;99313.09;;;10.73;71.40
9969;BME280;5025;48.890;9.278;2023-04-19T01:34:08;99311.44;;;10.72;71.50
9969;BME280;5025;48.890;9.278;2023-04-19T01:36:33;99308.13;;;10.70;71.73
9969;BME280;5025;48.890;9.278;2023-04-19T01:38:58;99309.81;;;10.71;71.61
9969;BME280;5025;48.890;9.278;2023-04-19T01:41:24;99305.44;;;10.70;71.71
9969;BME280;5025;48.890;9.278;2023-04-19T01:43:51;99302.94;;;10.68;71.75
9969;BME280;5025;48.890;9.278;2023-04-19T01:46:16;99301.28;;;10.67;71.88
9969;BME280;5025;48.890;9.278;2023-04-19T01:48:42;99297.16;;;10.65;71.54
9969;BME280;5025;48.890;9.278;2023-04-19T01:51:07;99295.28;;;10.65;71.85
9969;BME280;5025;48.890;9.278;2023-04-19T01:53:32;99296.75;;;10.61;71.90
9969;BME280;5025;48.890;9.278;2023-04-19T01:55:57;99287.84;;;10.61;72.00
9969;BME280;5025;48.890;9.278;2023-04-19T01:58:23;99287.84;;;10.61;72.03
9969;BME280;5025;48.890;9.278;2023-04-19T02:00:48;99286.78;;;10.62;72.00
9969;BME280;5025;48.890;9.278;2023-04-19T02:03:13;99285.13;;;10.61;72.16
9969;BME280;5025;48.890;9.278;2023-04-19T02:05:39;99283.47;;;10.59;72.16
9969;BME280;5025;48.890;9.278;2023-04-19T02:08:04;99277.47;;;10.57;72.13
9969;BME280;5025;48.890;9.278;2023-04-19T02:10:29;99285.56;;;10.57;72.07
9969;BME280;5025;48.890;9.278;2023-04-19T02:12:55;99278.28;;;10.58;72.30
9969;BME280;5025;48.890;9.278;2023-04-19T02:15:20;99276.44;;;10.58;72.14
9969;BME280;5025;48.890;9.278;2023-04-19T02:17:45;99272.50;;;10.54;72.22
9969;BME280;5025;48.890;9.278;2023-04-19T02:20:11;99263.56;;;10.54;72.42
9969;BME280;5025;48.890;9.278;2023-04-19T02:22:36;99262.75;;;10.53;72.36
9969;BME280;5025;48.890;9.278;2023-04-19T02:25:02;99260.72;;;10.42;72.62
9969;BME280;5025;48.890;9.278;2023-04-19T02:27:28;99255.75;;;10.39;73.03
9969;BME280;5025;48.890;9.278;2023-04-19T02:29:53;99264.91;;;10.38;72.86
9969;BME280;5025;48.890;9.278;2023-04-19T02:32:19;99263.63;;;10.40;73.05
9969;BME280;5025;48.890;9.278;2023-04-19T02:34:44;99255.75;;;10.39;72.81
9969;BME280;5025;48.890;9.278;2023-04-19T02:37:09;99255.16;;;10.37;73.00
9969;BME280;5025;48.890;9.278;2023-04-19T02:39:35;99252.25;;;10.32;73.23
9969;BME280;5025;48.890;9.278;2023-04-19T02:42:00;99245.19;;;10.31;73.26
9969;BME280;5025;48.890;9.278;2023-04-19T02:44:26;99247.88;;;10.31;73.28
9969;BME280;5025;48.890;9.278;2023-04-19T02:46:52;99248.69;;;10.31;73.51
9969;BME280;5025;48.890;9.278;2023-04-19T02:49:18;99259.50;;;10.31;73.48
9969;BME280;5025;48.890;9.278;2023-04-19T02:51:44;99252.47;;;10.30;73.31
9969;BME280;5025;48.890;9.278;2023-04-19T02:54:11;99249.97;;;10.29;73.73
9969;BME280;5025;48.890;9.278;2023-04-19T02:56:36;99254.94;;;10.32;73.35
9969;BME280;5025;48.890;9.278;2023-04-19T02:59:02;99242.47;;;10.31;73.39
9969;BME280;5025;48.890;9.278;2023-04-19T03:01:28;99247.66;;;10.32;73.59
9969;BME280;5025;48.890;9.278;2023-04-19T03:03:54;99250.19;;;10.34;73.54
9969;BME280;5025;48.890;9.278;2023-04-19T03:06:20;99247.66;;;10.32;73.47
9969;BME280;5025;48.890;9.278;2023-04-19T03:08:45;99247.88;;;10.31;73.59
9969;BME280;5025;48.890;9.278;2023-04-19T03:11:11;99247.88;;;10.31;73.68
9969;BME280;5025;48.890;9.278;2023-04-19T03:13:37;99245.41;;;10.29;73.74
9969;BME280;5025;48.890;9.278;2023-04-19T03:16:05;99239.19;;;10.29;73.61
9969;BME280;5025;48.890;9.278;2023-04-19T03:18:30;99241.66;;;10.30;73.61
9969;BME280;5025;48.890;9.278;2023-04-19T03:20:56;99244.38;;;10.30;73.77
9969;BME280;5025;48.890;9.278;2023-04-19T03:23:21;99241.03;;;10.28;73.71
9969;BME280;5025;48.890;9.278;2023-04-19T03:25:46;99234.59;;;10.29;73.73
9969;BME280;5025;48.890;9.278;2023-04-19T03:28:11;99236.28;;;10.23;73.70
9969;BME280;5025;48.890;9.278;2023-04-19T03:30:37;99236.28;;;10.23;73.62
9969;BME280;5025;48.890;9.278;2023-04-19T03:33:02;99240.03;;;10.22;73.86
9969;BME280;5025;48.890;9.278;2023-04-19T03:35:27;99240.03;;;10.22;73.95
9969;BME280;5025;48.890;9.278;2023-04-19T03:37:55;99240.69;;;10.18;73.79
9969;BME280;5025;48.890;9.278;2023-04-19T03:40:20;99240.91;;;10.16;73.75
9969;BME280;5025;48.890;9.278;2023-04-19T03:42:46;99235.94;;;10.13;74.16
9969;BME280;5025;48.890;9.278;2023-04-19T03:45:11;99237.78;;;10.13;73.87
9969;BME280;5025;48.890;9.278;2023-04-19T03:47:36;99232.59;;;10.11;74.03
9969;BME280;5025;48.890;9.278;2023-04-19T03:50:02;99232.00;;;10.09;74.11
9969;BME280;5025;48.890;9.278;2023-04-19T03:52:27;99230.53;;;10.07;74.04
9969;BME280;5025;48.890;9.278;2023-04-19T03:54:52;99229.72;;;10.06;73.90
9969;BME280;5025;48.890;9.278;2023-04-19T03:57:18;99226.44;;;10.04;74.08
9969;BME280;5025;48.890;9.278;2023-04-19T03:59:43;99220.59;;;10.00;74.10
9969;BME280;5025;48.890;9.278;2023-04-19T04:02:08;99225.19;;;10.00;74.37
9969;BME280;5025;48.890;9.278;2023-04-19T04:04:33;99227.28;;;9.98;74.51
9969;BME280;5025;48.890;9.278;2023-04-19T04:06:59;99225.63;;;9.97;74.62
9969;BME280;5025;48.890;9.278;2023-04-19T04:09:24;99227.72;;;9.95;74.45
9969;BME280;5025;48.890;9.278;2023-04-19T04:11:49;99229.78;;;9.93;74.46
9969;BME280;5025;48.890;9.278;2023-04-19T04:14:14;99226.47;;;9.91;74.31
9969;BME280;5025;48.890;9.278;2023-04-19T04:16:40;99233.97;;;9.89;74.60
9969;BME280;5025;48.890;9.278;2023-04-19T04:19:05;99230.03;;;9.84;74.56
9969;BME280;5025;48.890;9.278;2023-04-19T04:21:31;99227.13;;;9.79;74.61
9969;BME280;5025;48.890;9.278;2023-04-19T04:23:56;99232.31;;;9.74;74.90
9969;BME280;5025;48.890;9.278;2023-04-19T04:26:22;99238.78;;;9.66;74.72
9969;BME280;5025;48.890;9.278;2023-04-19T04:28:49;99233.19;;;9.61;74.95
9969;BME280;5025;48.890;9.278;2023-04-19T04:31:14;99231.94;;;9.57;74.97
9969;BME280;5025;48.890;9.278;2023-04-19T04:33:42;99238.81;;;9.53;74.86
9969;BME280;5025;48.890;9.278;2023-04-19T04:36:08;99239.47;;;9.48;74.94
9969;BME280;5025;48.890;9.278;2023-04-19T04:38:36;99236.53;;;9.43;75.00
9969;BME280;5025;48.890;9.278;2023-04-19T04:41:02;99244.44;;;9.38;75.06
9969;BME280;5025;48.890;9.278;2023-04-19T04:43:28;99239.69;;;9.33;75.05
9969;BME280;5025;48.890;9.278;2023-04-19T04:45:54;99236.59;;;9.30;75.00
9969;BME280;5025;48.890;9.278;2023-04-19T04:48:21;99243.00;;;9.29;74.95
9969;BME280;5025;48.890;9.278;2023-04-19T04:50:46;99244.44;;;9.25;74.81
9969;BME280;5025;48.890;9.278;2023-04-19T04:53:12;99244.03;;;9.21;74.85
9969;BME280;5025;48.890;9.278;2023-04-19T04:55:37;99247.38;;;9.17;74.91
9969;BME280;5025;48.890;9.278;2023-04-19T04:58:02;99253.81;;;9.15;75.10
9969;BME280;5025;48.890;9.278;2023-04-19T05:00:30;99238.66;;;9.14;74.88
9969;BME280;5025;48.890;9.278;2023-04-19T05:02:56;99251.13;;;9.15;74.96
9969;BME280;5025;48.890;9.278;2023-04-19T05:05:21;99249.84;;;9.18;74.87
9969;BME280;5025;48.890;9.278;2023-04-19T05:07:47;99251.13;;;9.15;75.02
9969;BME280;5025;48.890;9.278;2023-04-19T05:10:12;99250.25;;;9.15;74.89
9969;BME280;5025;48.890;9.278;2023-04-19T05:12:37;99251.53;;;9.12;74.82
9969;BME280;5025;48.890;9.278;2023-04-19T05:15:03;99254.22;;;9.12;74.94
9969;BME280;5025;48.890;9.278;2023-04-19T05:17:28;99250.69;;;9.12;75.21
9969;BME280;5025;48.890;9.278;2023-04-19T05:19:53;99249.66;;;9.13;75.17
9969;BME280;5025;48.890;9.278;2023-04-19T05:22:19;99249.88;;;9.11;75.26
9969;BME280;5025;48.890;9.278;2023-04-19T05:24:44;99249.88;;;9.11;75.27
9969;BME280;5025;48.890;9.278;2023-04-19T05:27:09;99248.19;;;9.10;75.33
9969;BME280;5025;48.890;9.278;2023-04-19T05:29:35;99255.84;;;9.13;75.34
9969;BME280;5025;48.890;9.278;2023-04-19T05:32:00;99262.09;;;9.14;75.51
9969;BME280;5025;48.890;9.278;2023-04-19T05:34:26;99255.25;;;9.11;75.72
9969;BME280;5025;48.890;9.278;2023-04-19T05:36:51;99262.09;;;9.14;75.81
9969;BME280;5025;48.890;9.278;2023-04-19T05:39:16;99258.78;;;9.19;75.95
9969;BME280;5025;48.890;9.278;2023-04-19T05:41:42;99259.19;;;9.22;75.70
9969;BME280;5025;48.890;9.278;2023-04-19T05:44:07;99262.91;;;9.21;75.94
9969;BME280;5025;48.890;9.278;2023-04-19T05:46:35;99258.78;;;9.19;76.47
9969;BME280;5025;48.890;9.278;2023-04-19T05:49:01;99260.41;;;9.26;76.54
9969;BME280;5025;48.890;9.278;2023-04-19T05:51:26;99252.75;;;9.30;76.20
9969;BME280;5025;48.890;9.278;2023-04-19T05:53:52;99253.16;;;9.27;76.76
9969;BME280;5025;48.890;9.278;2023-04-19T05:56:18;99250.06;;;9.30;76.94
9969;BME280;5025;48.890;9.278;2023-04-19T05:58:43;99254.38;;;9.31;76.98
9969;BME280;5025;48.890;9.278;2023-04-19T06:01:08;99251.91;;;9.36;77.41
9969;BME280;5025;48.890;9.278;2023-04-19T06:03:34;99248.38;;;9.42;77.47
9969;BME280;5025;48.890;9.278;2023-04-19T06:05:59;99246.91;;;9.46;77.04
9969;BME280;5025;48.890;9.278;2023-04-19T06:08:24;99255.22;;;9.51;76.93
9969;BME280;5025;48.890;9.278;2023-04-19T06:10:49;99243.59;;;9.58;76.94
9969;BME280;5025;48.890;9.278;2023-04-19T06:13:15;99249.78;;;9.65;76.72
9969;BME280;5025;48.890;9.278;2023-04-19T06:15:40;99240.22;;;9.69;76.59
9969;BME280;5025;48.890;9.278;2023-04-19T06:18:06;99247.06;;;9.78;76.53
9969;BME280;5025;48.890;9.278;2023-04-19T06:20:37;99252.63;;;9.83;76.24
9969;BME280;5025;48.890;9.278;2023-04-19T06:23:03;99251.38;;;9.86;76.41
9969;BME280;5025;48.890;9.278;2023-04-19T06:25:29;99254.47;;;9.90;76.33
9969;BME280;5025;48.890;9.278;2023-04-19T06:27:55;99259.09;;;9.76;76.71
9969;BME280;5025;48.890;9.278;2023-04-19T06:30:20;99258.22;;;9.82;77.13
9969;BME280;5025;48.890;9.278;2023-04-19T06:32:45;99253.47;;;9.84;76.88
9969;BME280;5025;48.890;9.278;2023-04-19T06:35:11;99251.00;;;9.82;76.98
9969;BME280;5025;48.890;9.278;2023-04-19T06:37:36;99253.88;;;9.87;76.90
9969;BME280;5025;48.890;9.278;2023-04-19T06:40:02;99252.84;;;9.89;76.81
9969;BME280;5025;48.890;9.278;2023-04-19T06:42:31;99251.13;;;9.94;76.61
9969;BME280;5025;48.890;9.278;2023-04-19T06:44:56;99251.34;;;9.93;76.63
9969;BME280;5025;48.890;9.278;2023-04-19T06:47:22;99262.97;;;10.00;76.67
9969;BME280;5025;48.890;9.278;2023-04-19T06:49:47;99255.03;;;10.05;76.46
9969;BME280;5025;48.890;9.278;2023-04-19T06:52:12;99257.94;;;10.10;76.52
9969;BME280;5025;48.890;9.278;2023-04-19T06:54:38;99253.34;;;10.17;76.27
9969;BME280;5025;48.890;9.278;2023-04-19T06:57:03;99252.91;;;10.20;76.42
9969;BME280;5025;48.890;9.278;2023-04-19T06:59:28;99249.34;;;10.27;76.08
9969;BME280;5025;48.890;9.278;2023-04-19T07:01:56;99247.06;;;10.30;76.19
9969;BME280;5025;48.890;9.278;2023-04-19T07:04:22;99246.22;;;10.30;76.28
9969;BME280;5025;48.890;9.278;2023-04-19T07:06:48;99248.28;;;10.34;76.36
9969;BME280;5025;48.890;9.278;2023-04-19T07:09:14;99246.41;;;10.42;76.32
9969;BME280;5025;48.890;9.278;2023-04-19T07:11:39;99250.13;;;10.47;76.11
9969;BME280;5025;48.890;9.278;2023-04-19T07:14:05;99240.09;;;10.54;76.00
9969;BME280;5025;48.890;9.278;2023-04-19T07:16:31;99241.91;;;10.61;75.95
9969;BME280;5025;48.890;9.278;2023-04-19T07:18:56;99239.38;;;10.66;75.75
9969;BME280;5025;48.890;9.278;2023-04-19T07:21:22;99234.78;;;10.73;75.42
9969;BME280;5025;48.890;9.278;2023-04-19T07:23:49;99227.91;;;10.77;75.48
9969;BME280;5025;48.890;9.278;2023-04-19T07:26:14;99229.09;;;10.81;75.15
9969;BME280;5025;48.890;9.278;2023-04-19T07:28:40;99226.16;;;10.83;75.04
9969;BME280;5025;48.890;9.278;2023-04-19T07:31:05;99225.94;;;10.84;74.91
9969;BME280;5025;48.890;9.278;2023-04-19T07:33:30;99220.09;;;10.87;74.48
9969;BME280;5025;48.890;9.278;2023-04-19T07:35:56;99224.84;;;10.92;74.34
9969;BME280;5025;48.890;9.278;2023-04-19T07:38:21;99220.50;;;10.91;73.95
9969;BME280;5025;48.890;9.278;2023-04-19T07:40:46;99226.28;;;10.94;73.74
9969;BME280;5025;48.890;9.278;2023-04-19T07:43:12;99215.66;;;11.00;73.52
9969;BME280;5025;48.890;9.278;2023-04-19T07:45:37;99216.66;;;11.05;73.25
9969;BME280;5025;48.890;9.278;2023-04-19T07:48:03;99212.84;;;11.13;72.90
9969;BME280;5025;48.890;9.278;2023-04-19T07:50:28;99212.78;;;11.20;72.74
9969;BME280;5025;48.890;9.278;2023-04-19T07:52:53;99216.47;;;11.25;72.39
9969;BME280;5025;48.890;9.278;2023-04-19T07:55:19;99215.72;;;11.37;72.08
9969;BME280;5025;48.890;9.278;2023-04-19T07:57:45;99213.34;;;11.47;71.72
9969;BME280;5025;48.890;9.278;2023-04-19T08:00:15;99219.53;;;11.54;71.48
9969;BME280;5025;48.890;9.278;2023-04-19T08:02:44;99216.97;;;11.59;70.91
9969;BME280;5025;48.890;9.278;2023-04-19T08:05:11;99211.56;;;11.59;70.85
9969;BME280;5025;48.890;9.278;2023-04-19T08:07:36;99219.66;;;11.59;70.57
9969;BME280;5025;48.890;9.278;2023-04-19T08:10:02;99214.63;;;11.63;70.26
9969;BME280;5025;48.890;9.278;2023-04-19T08:12:27;99223.19;;;11.60;70.01
9969;BME280;5025;48.890;9.278;2023-04-19T08:14:53;99215.69;;;11.62;69.89
9969;BME280;5025;48.890;9.278;2023-04-19T08:17:18;99211.69;;;11.64;69.72
9969;BME280;5025;48.890;9.278;2023-04-19T08:19:46;99213.94;;;11.68;69.54
9969;BME280;5025;48.890;9.278;2023-04-19T08:22:14;99202.09;;;11.69;69.10
9969;BME280;5025;48.890;9.278;2023-04-19T08:24:40;99194.19;;;11.67;68.86
9969;BME280;5025;48.890;9.278;2023-04-19T08:27:05;99199.38;;;11.69;68.92
9969;BME280;5025;48.890;9.278;2023-04-19T08:29:30;99193.97;;;11.69;68.56
9969;BME280;5025;48.890;9.278;2023-04-19T08:31:57;99201.41;;;11.73;68.51
9969;BME280;5025;48.890;9.278;2023-04-19T08:34:22;99207.41;;;11.75;68.10
9969;BME280;5025;48.890;9.278;2023-04-19T08:36:48;99205.56;;;11.76;68.18
9969;BME280;5025;48.890;9.278;2023-04-19T08:39:13;99202.63;;;11.77;68.10
9969;BME280;5025;48.890;9.278;2023-04-19T08:41:39;99200.72;;;11.78;67.95
9969;BME280;5025;48.890;9.278;2023-04-19T08:44:04;99201.31;;;11.80;67.90
9969;BME280;5025;48.890;9.278;2023-04-19T08:46:31;99202.16;;;11.80;67.85
9969;BME280;5025;48.890;9.278;2023-04-19T08:48:56;99196.97;;;11.79;67.86
9969;BME280;5025;48.890;9.278;2023-04-19T08:51:23;99198.63;;;11.80;68.27
9969;BME280;5025;48.890;9.278;2023-04-19T08:53:50;99196.13;;;11.78;68.33
9969;BME280;5025;48.890;9.278;2023-04-19T08:56:15;99190.72;;;11.78;68.42
9969;BME280;5025;48.890;9.278;2023-04-19T08:58:41;99188.34;;;11.70;68.67
9969;BME280;5025;48.890;9.278;2023-04-19T09:01:07;99181.88;;;11.71;68.69
9969;BME280;5025;48.890;9.278;2023-04-19T09:03:33;99185.84;;;11.69;69.14
9969;BME280;5025;48.890;9.278;2023-04-19T09:06:02;99191.78;;;11.77;69.10
9969;BME280;5025;48.890;9.278;2023-04-19T09:08:29;99182.53;;;11.85;68.90
9969;BME280;5025;48.890;9.278;2023-04-19T09:10:59;99176.66;;;11.88;69.00
9969;BME280;5025;48.890;9.278;2023-04-19T09:13:26;99178.03;;;11.79;69.00
9969;BME280;5025;48.890;9.278;2023-04-19T09:15:51;99175.34;;;11.60;68.97
9969;BME280;5025;48.890;9.278;2023-04-19T09:18:22;99170.22;;;11.71;69.21
9969;BME280;5025;48.890;9.278;2023-04-19T09:20:49;99170.59;;;11.74;69.01
9969;BME280;5025;48.890;9.278;2023-04-19T09:23:17;99169.16;;;11.90;68.59
9969;BME280;5025;48.890;9.278;2023-04-19T09:26:01;99166.44;;;12.09;67.97
9969;BME280;5025;48.890;9.278;2023-04-19T09:28:27;99156.31;;;12.16;67.67
9969;BME280;5025;48.890;9.278;2023-04-19T09:30:56;99154.47;;;12.28;67.58
9969;BME280;5025;48.890;9.278;2023-04-19T09:35:55;99152.44;;;12.54;66.53
9969;BME280;5025;48.890;9.278;2023-04-19T09:38:20;99147.75;;;12.61;66.42
9969;BME280;5025;48.890;9.278;2023-04-19T09:40:45;99150.13;;;12.69;66.02
9969;BME280;5025;48.890;9.278;2023-04-19T09:43:11;99151.31;;;12.73;65.53
9969;BME280;5025;48.890;9.278;2023-04-19T09:45:44;99145.88;;;12.73;65.24
9969;BME280;5025;48.890;9.278;2023-04-19T09:48:11;99141.63;;;12.78;65.07
9969;BME280;5025;48.890;9.278;2023-04-19T09:50:56;99142.81;;;12.82;64.65
9969;BME280;5025;48.890;9.278;2023-04-19T09:53:22;99137.88;;;12.79;64.66
9969;BME280;5025;48.890;9.278;2023-04-19T09:55:48;99132.22;;;12.80;64.47
9969;BME280;5025;48.890;9.278;2023-04-19T09:58:18;99133.63;;;12.83;64.20
9969;BME280;5025;48.890;9.278;2023-04-19T10:00:44;99128.81;;;12.85;64.20
9969;BME280;5025;48.890;9.278;2023-04-19T10:03:11;99123.63;;;12.83;63.93
9969;BME280;5025;48.890;9.278;2023-04-19T10:05:38;99123.38;;;12.85;63.96
9969;BME280;5025;48.890;9.278;2023-04-19T10:08:08;99125.03;;;12.86;63.62
9969;BME280;5025;48.890;9.278;2023-04-19T10:10:34;99124.56;;;12.89;63.75
9969;BME280;5025;48.890;9.278;2023-04-19T10:13:03;99117.50;;;12.88;63.52
9969;BME280;5025;48.890;9.278;2023-04-19T10:15:29;99128.09;;;12.89;63.60
9969;BME280;5025;48.890;9.278;2023-04-19T10:17:55;99120.78;;;12.90;63.51
9969;BME280;5025;48.890;9.278;2023-04-19T10:20:33;99123.16;;;12.86;63.57
9969;BME280;5025;48.890;9.278;2023-04-19T10:23:01;99114.19;;;12.86;63.58
9969;BME280;5025;48.890;9.278;2023-04-19T10:25:28;99119.63;;;12.86;63.60
9969;BME280;5025;48.890;9.278;2023-04-19T10:27:54;99110.06;;;12.83;63.59
9969;BME280;5025;48.890;9.278;2023-04-19T10:30:23;99110.41;;;12.87;63.73
9969;BME280;5025;48.890;9.278;2023-04-19T10:32:58;99113.50;;;12.90;63.85
9969;BME280;5025;48.890;9.278;2023-04-19T10:35:34;99109.22;;;12.95;63.74
9969;BME280;5025;48.890;9.278;2023-04-19T10:38:02;99119.13;;;13.01;63.92
9969;BME280;5025;48.890;9.278;2023-04-19T10:43:15;99101.47;;;12.98;63.72
9969;BME280;5025;48.890;9.278;2023-04-19T10:45:44;99105.47;;;12.96;63.80
9969;BME280;5025;48.890;9.278;2023-04-19T10:51:14;99098.38;;;12.95;63.91
9969;BME280;5025;48.890;9.278;2023-04-19T11:01:38;99082.00;;;12.78;64.44
9969;BME280;5025;48.890;9.278;2023-04-19T11:11:58;99077.53;;;12.60;64.82
9969;BME280;5025;48.890;9.278;2023-04-19T11:14:25;99079.88;;;12.56;65.09
9969;BME280;5025;48.890;9.278;2023-04-19T11:16:51;99075.41;;;12.50;65.20
9969;BME280;5025;48.890;9.278;2023-04-19T11:19:17;99074.22;;;12.46;65.40
9969;BME280;5025;48.890;9.278;2023-04-19T11:21:47;99076.78;;;12.41;65.64
9969;BME280;5025;48.890;9.278;2023-04-19T11:24:13;99062.91;;;12.37;65.85
9969;BME280;5025;48.890;9.278;2023-04-19T11:26:41;99070.69;;;12.33;66.00
9969;BME280;5025;48.890;9.278;2023-04-19T11:29:08;99070.53;;;12.28;66.35
9969;BME280;5025;48.890;9.278;2023-04-19T11:31:34;99072.91;;;12.25;66.70
9969;BME280;5025;48.890;9.278;2023-04-19T11:34:01;99069.84;;;12.21;66.87
9969;BME280;5025;48.890;9.278;2023-04-19T11:36:26;99066.16;;;12.15;67.23
9969;BME280;5025;48.890;9.278;2023-04-19T11:38:52;99064.38;;;12.09;67.50
9969;BME280;5025;48.890;9.278;2023-04-19T11:41:18;99067.31;;;12.08;68.07
9969;BME280;5025;48.890;9.278;2023-04-19T11:43:43;99062.84;;;12.01;68.13
9969;BME280;5025;48.890;9.278;2023-04-19T11:46:11;99056.84;;;11.99;68.62
9969;BME280;5025;48.890;9.278;2023-04-19T11:48:38;99059.38;;;11.94;68.94
9969;BME280;5025;48.890;9.278;2023-04-19T11:51:04;99052.34;;;11.93;69.15
9969;BME280;5025;48.890;9.278;2023-04-19T11:53:31;99053.81;;;11.89;69.62
9969;BME280;5025;48.890;9.278;2023-04-19T11:56:07;99056.19;;;11.86;70.14
9969;BME280;5025;48.890;9.278;2023-04-19T11:58:45;99051.69;;;11.79;70.25
9969;BME280;5025;48.890;9.278;2023-04-19T12:01:16;99049.66;;;11.75;70.55
9969;BME280;5025;48.890;9.278;2023-04-19T12:03:51;99047.28;;;11.66;70.99
9969;BME280;5025;48.890;9.278;2023-04-19T12:06:21;99049.47;;;11.58;71.72
9969;BME280;5025;48.890;9.278;2023-04-19T12:08:49;99045.13;;;11.57;71.66
9969;BME280;5025;48.890;9.278;2023-04-19T12:11:21;99044.88;;;11.58;71.87
9969;BME280;5025;48.890;9.278;2023-04-19T12:14:06;99047.59;;;11.58;71.92
9969;BME280;5025;48.890;9.278;2023-04-19T12:16:31;99047.81;;;11.57;72.14
9969;BME280;5025;48.890;9.278;2023-04-19T12:18:56;99052.41;;;11.56;72.53
9969;BME280;5025;48.890;9.278;2023-04-19T12:21:29;99041.59;;;11.56;72.39
9969;BME280;5025;48.890;9.278;2023-04-19T12:23:58;99043.50;;;11.56;72.61
9969;BME280;5025;48.890;9.278;2023-04-19T12:26:27;99047.00;;;11.56;72.62
9969;BME280;5025;48.890;9.278;2023-04-19T12:28:54;99043.50;;;11.56;72.70
9969;BME280;5025;48.890;9.278;2023-04-19T12:31:19;99036.06;;;11.51;73.10
9969;BME280;5025;48.890;9.278;2023-04-19T12:33:45;99036.28;;;11.50;73.27
9969;BME280;5025;48.890;9.278;2023-04-19T12:36:11;99039.56;;;11.52;73.12
9969;BME280;5025;48.890;9.278;2023-04-19T12:38:36;99045.22;;;11.50;73.27
9969;BME280;5025;48.890;9.278;2023-04-19T12:41:02;99039.81;;;11.50;73.46
9969;BME280;5025;48.890;9.278;2023-04-19T12:43:27;99033.34;;;11.51;73.28
9969;BME280;5025;48.890;9.278;2023-04-19T12:45:54;99030.88;;;11.50;73.51
9969;BME280;5025;48.890;9.278;2023-04-19T12:48:19;99033.59;;;11.50;73.57
9969;BME280;5025;48.890;9.278;2023-04-19T12:50:45;99029.00;;;11.50;73.59
9969;BME280;5025;48.890;9.278;2023-04-19T12:53:10;99025.47;;;11.50;73.46
9969;BME280;5025;48.890;9.278;2023-04-19T12:55:35;99019.66;;;11.46;73.24
9969;BME280;5025;48.890;9.278;2023-04-19T12:58:01;99022.84;;;11.43;73.36
9969;BME280;5025;48.890;9.278;2023-04-19T13:00:26;99029.91;;;11.44;73.27
9969;BME280;5025;48.890;9.278;2023-04-19T13:02:51;99023.44;;;11.45;73.06
9969;BME280;5025;48.890;9.278;2023-04-19T13:05:17;99021.56;;;11.45;73.02
9969;BME280;5025;48.890;9.278;2023-04-19T13:07:42;99026.16;;;11.45;72.76
9969;BME280;5025;48.890;9.278;2023-04-19T13:10:08;99021.56;;;11.45;72.70
9969;BME280;5025;48.890;9.278;2023-04-19T13:12:33;99018.63;;;11.47;72.67
9969;BME280;5025;48.890;9.278;2023-04-19T13:14:59;99014.50;;;11.44;72.53
9969;BME280;5025;48.890;9.278;2023-04-19T13:17:25;99007.22;;;11.45;72.59
9969;BME280;5025;48.890;9.278;2023-04-19T13:19:50;98995.09;;;11.47;72.33
9969;BME280;5025;48.890;9.278;2023-04-19T13:22:16;99000.91;;;11.51;72.28
9969;BME280;5025;48.890;9.278;2023-04-19T13:24:41;98993.38;;;11.53;72.05
9969;BME280;5025;48.890;9.278;2023-04-19T13:27:06;98988.53;;;11.55;71.97
9969;BME280;5025;48.890;9.278;2023-04-19T13:29:32;98992.56;;;11.53;71.91
9969;BME280;5025;48.890;9.278;2023-04-19T13:31:57;98986.47;;;11.57;71.93
9969;BME280;5025;48.890;9.278;2023-04-19T13:34:22;98984.56;;;11.58;71.77
9969;BME280;5025;48.890;9.278;2023-04-19T13:36:48;98979.97;;;11.58;71.84
9969;BME280;5025;48.890;9.278;2023-04-19T13:39:13;98976.47;;;11.58;71.69
9969;BME280;5025;48.890;9.278;2023-04-19T13:41:38;98975.63;;;11.57;71.56
9969;BME280;5025;48.890;9.278;2023-04-19T13:44:03;98973.06;;;11.62;71.39